createdAt,value
2022-12-01T00:00:48.000Z,2.20
2022-12-01T00:01:48.000Z,2.19
2022-12-01T00:02:48.000Z,2.20
2022-12-01T00:03:48.000Z,2.23
2022-12-01T00:04:48.000Z,2.20
2022-12-01T00:05:48.000Z,2.20
2022-12-01T00:06:48.000Z,2.19
2022-12-01T00:07:48.000Z,2.23
2022-12-01T00:08:48.000Z,2.22
2022-12-01T00:09:48.000Z,2.19
2022-12-01T00:10:48.000Z,2.19
2022-12-01T00:11:48.000Z,2.19
2022-12-01T00:12:48.000Z,2.20
2022-12-01T00:13:48.000Z,2.19
2022-12-01T00:14:48.000Z,2.15
2022-12-01T00:15:48.000Z,2.18
2022-12-01T00:16:48.000Z,2.15
2022-12-01T00:17:48.000Z,2.18
2022-12-01T00:18:48.000Z,2.15
2022-12-01T00:19:48.000Z,2.19
2022-12-01T00:20:48.000Z,2.18
2022-12-01T00:21:48.000Z,2.14
2022-12-01T00:22:48.000Z,2.18
2022-12-01T00:23:48.000Z,2.14
2022-12-01T00:24:48.000Z,2.15
2022-12-01T00:25:48.000Z,2.14
2022-12-01T00:26:48.000Z,2.09
2022-12-01T00:27:48.000Z,2.11
2022-12-01T00:28:48.000Z,2.12
2022-12-01T00:29:48.000Z,2.08
2022-12-01T00:30:48.000Z,2.09
2022-12-01T00:31:48.000Z,2.07
2022-12-01T00:32:48.000Z,2.08
2022-12-01T00:33:48.000Z,2.12
2022-12-01T00:34:48.000Z,2.09
2022-12-01T00:35:48.000Z,2.05
2022-12-01T00:36:48.000Z,2.09
2022-12-01T00:37:48.000Z,2.07
2022-12-01T00:38:48.000Z,2.07
2022-12-01T00:39:48.000Z,2.02
2022-12-01T00:40:47.000Z,2.05
2022-12-01T00:41:47.000Z,2.04
2022-12-01T00:42:47.000Z,2.02
2022-12-01T00:43:47.000Z,2.05
2022-12-01T00:44:47.000Z,2.02
2022-12-01T00:45:47.000Z,2.01
2022-12-01T00:46:47.000Z,2.04
2022-12-01T00:47:47.000Z,2.02
2022-12-01T00:48:47.000Z,1.98
2022-12-01T00:49:47.000Z,1.98
2022-12-01T00:50:47.000Z,1.92
2022-12-01T00:51:47.000Z,1.95
2022-12-01T00:52:47.000Z,2.00
2022-12-01T00:53:47.000Z,1.98
2022-12-01T00:54:47.000Z,1.98
2022-12-01T00:55:47.000Z,2.01
2022-12-01T00:56:47.000Z,2.01
2022-12-01T00:57:47.000Z,2.01
2022-12-01T00:58:47.000Z,1.98
2022-12-01T00:59:47.000Z,2.00
2022-12-01T01:00:47.000Z,2.01
2022-12-01T01:01:47.000Z,2.01
2022-12-01T01:02:47.000Z,1.95
2022-12-01T01:03:47.000Z,1.95
2022-12-01T01:04:47.000Z,1.92
2022-12-01T01:05:47.000Z,1.93
2022-12-01T01:06:47.000Z,1.95
2022-12-01T01:07:47.000Z,2.00
2022-12-01T01:08:47.000Z,1.93
2022-12-01T01:09:47.000Z,1.93
2022-12-01T01:10:47.000Z,1.93
2022-12-01T01:11:47.000Z,1.93
2022-12-01T01:12:47.000Z,1.93
2022-12-01T01:13:47.000Z,1.92
2022-12-01T01:14:47.000Z,1.92
2022-12-01T01:15:47.000Z,1.90
2022-12-01T01:16:47.000Z,1.89
2022-12-01T01:17:47.000Z,1.90
2022-12-01T01:18:47.000Z,1.88
2022-12-01T01:19:47.000Z,1.90
2022-12-01T01:20:47.000Z,1.85
2022-12-01T01:21:47.000Z,1.86
2022-12-01T01:22:47.000Z,1.86
2022-12-01T01:23:47.000Z,1.81
2022-12-01T01:24:47.000Z,1.83
2022-12-01T01:25:47.000Z,1.85
2022-12-01T01:26:47.000Z,1.83
2022-12-01T01:27:47.000Z,1.85
2022-12-01T01:28:47.000Z,1.85
2022-12-01T01:29:47.000Z,1.83
2022-12-01T01:30:47.000Z,1.83
2022-12-01T01:31:47.000Z,1.83
2022-12-01T01:32:47.000Z,1.85
2022-12-01T01:33:47.000Z,1.85
2022-12-01T01:34:47.000Z,1.81
2022-12-01T01:35:47.000Z,1.83
2022-12-01T01:36:47.000Z,1.85
2022-12-01T01:37:47.000Z,1.82
2022-12-01T01:38:47.000Z,1.85
2022-12-01T02:18:19.000Z,1.72
2022-12-01T02:18:19.000Z,1.74
2022-12-01T02:19:19.000Z,1.75
2022-12-01T02:20:19.000Z,1.72
2022-12-01T03:27:36.000Z,1.36
2022-12-01T03:27:36.000Z,1.34
2022-12-01T03:28:36.000Z,1.36
2022-12-01T03:29:36.000Z,1.34
2022-12-01T03:30:36.000Z,1.35
2022-12-01T03:31:36.000Z,1.36
2022-12-01T03:32:36.000Z,1.35
2022-12-01T03:33:36.000Z,1.35
2022-12-01T03:34:36.000Z,1.35
2022-12-01T03:35:36.000Z,1.34
2022-12-01T03:36:36.000Z,1.32
2022-12-01T03:37:36.000Z,1.31
2022-12-01T03:38:36.000Z,1.34
2022-12-01T03:39:36.000Z,1.25
2022-12-01T03:40:36.000Z,1.28
2022-12-01T03:41:36.000Z,1.28
2022-12-01T03:42:36.000Z,1.29
2022-12-01T03:43:36.000Z,1.28
2022-12-01T03:44:36.000Z,1.28
2022-12-01T03:45:36.000Z,1.28
2022-12-01T03:46:36.000Z,1.28
2022-12-01T03:47:36.000Z,1.28
2022-12-01T03:48:36.000Z,1.28
2022-12-01T03:49:36.000Z,1.25
2022-12-01T03:50:36.000Z,1.21
2022-12-01T03:51:36.000Z,1.21
2022-12-01T03:52:36.000Z,1.21
2022-12-01T03:53:36.000Z,1.20
2022-12-01T03:54:36.000Z,1.17
2022-12-01T03:55:36.000Z,1.17
2022-12-01T03:56:36.000Z,1.20
2022-12-01T03:57:36.000Z,1.17
2022-12-01T03:58:36.000Z,1.18
2022-12-01T03:59:36.000Z,1.14
2022-12-01T04:00:36.000Z,1.13
2022-12-01T04:01:36.000Z,1.10
2022-12-01T04:02:36.000Z,1.11
2022-12-01T04:03:36.000Z,1.10
2022-12-01T04:04:36.000Z,1.08
2022-12-01T04:05:36.000Z,1.07
2022-12-01T04:06:36.000Z,1.04
2022-12-01T04:07:36.000Z,1.04
2022-12-01T04:08:36.000Z,1.02
2022-12-01T04:09:36.000Z,1.00
2022-12-01T04:10:36.000Z,1.07
2022-12-01T04:11:36.000Z,0.99
2022-12-01T04:12:36.000Z,1.02
2022-12-01T04:13:36.000Z,1.00
2022-12-01T04:14:36.000Z,1.00
2022-12-01T04:15:36.000Z,1.02
2022-12-01T04:16:36.000Z,0.99
2022-12-01T04:17:36.000Z,0.99
2022-12-01T04:18:36.000Z,1.04
2022-12-01T04:19:36.000Z,1.04
2022-12-01T04:20:36.000Z,1.02
2022-12-01T04:21:36.000Z,1.00
2022-12-01T04:22:35.000Z,1.00
2022-12-01T04:23:35.000Z,1.04
2022-12-01T04:24:35.000Z,0.99
2022-12-01T04:25:35.000Z,1.00
2022-12-01T04:26:35.000Z,0.99
2022-12-01T04:27:35.000Z,1.00
2022-12-01T04:28:35.000Z,1.00
2022-12-01T04:29:35.000Z,0.99
2022-12-01T04:30:35.000Z,1.00
2022-12-01T04:31:35.000Z,1.00
2022-12-01T04:32:35.000Z,0.95
2022-12-01T04:33:35.000Z,0.96
2022-12-01T04:34:35.000Z,0.95
2022-12-01T04:35:35.000Z,0.93
2022-12-01T04:36:35.000Z,0.90
2022-12-01T04:37:35.000Z,0.88
2022-12-01T04:38:35.000Z,0.82
2022-12-01T04:39:35.000Z,0.82
2022-12-01T04:40:35.000Z,0.78
2022-12-01T04:41:35.000Z,0.80
2022-12-01T04:42:35.000Z,0.80
2022-12-01T04:43:35.000Z,0.84
2022-12-01T04:44:35.000Z,0.82
2022-12-01T04:45:35.000Z,0.82
2022-12-01T04:46:35.000Z,0.82
2022-12-01T04:47:35.000Z,0.82
2022-12-01T04:48:35.000Z,0.80
2022-12-01T04:49:35.000Z,0.78
2022-12-01T04:50:35.000Z,0.81
2022-12-01T04:51:35.000Z,0.81
2022-12-01T04:52:35.000Z,0.80
2022-12-01T04:53:35.000Z,0.78
2022-12-01T04:54:35.000Z,0.77
2022-12-01T04:55:35.000Z,0.72
2022-12-01T04:56:35.000Z,0.71
2022-12-01T04:57:35.000Z,0.72
2022-12-01T04:58:35.000Z,0.70
2022-12-01T04:59:35.000Z,0.70
2022-12-01T05:00:35.000Z,0.72
2022-12-01T05:01:35.000Z,0.70
2022-12-01T05:02:35.000Z,0.70
2022-12-01T05:03:35.000Z,0.68
2022-12-01T05:04:35.000Z,0.70
2022-12-01T05:05:35.000Z,0.70
2022-12-01T05:06:35.000Z,0.68
2022-12-01T05:07:35.000Z,0.68
2022-12-01T05:08:35.000Z,0.67
2022-12-01T05:09:35.000Z,0.67
2022-12-01T05:10:35.000Z,0.68
2022-12-01T05:11:35.000Z,0.64
2022-12-01T05:12:35.000Z,0.70
2022-12-01T05:13:35.000Z,0.68
2022-12-01T05:14:35.000Z,0.64
2022-12-01T05:15:35.000Z,0.63
2022-12-01T05:16:35.000Z,0.67
2022-12-01T05:17:35.000Z,0.60
2022-12-01T05:18:35.000Z,0.59
2022-12-01T05:19:35.000Z,0.60
2022-12-01T05:20:35.000Z,0.60
2022-12-01T05:21:35.000Z,0.59
2022-12-01T05:22:35.000Z,0.63
2022-12-01T05:23:35.000Z,0.64
2022-12-01T05:24:35.000Z,0.60
2022-12-01T05:25:35.000Z,0.60
2022-12-01T05:26:35.000Z,0.60
2022-12-01T05:27:35.000Z,0.60
2022-12-01T05:28:35.000Z,0.57
2022-12-01T05:29:35.000Z,0.59
2022-12-01T05:30:35.000Z,0.60
2022-12-01T05:31:35.000Z,0.59
2022-12-01T05:32:35.000Z,0.59
2022-12-01T05:33:35.000Z,0.59
2022-12-01T05:34:35.000Z,0.57
2022-12-01T05:35:35.000Z,0.60
2022-12-01T05:36:35.000Z,0.59
2022-12-01T05:37:35.000Z,0.57
2022-12-01T05:38:35.000Z,0.56
2022-12-01T05:39:34.000Z,0.52
2022-12-01T05:40:34.000Z,0.57
2022-12-01T05:41:34.000Z,0.53
2022-12-01T05:42:34.000Z,0.53
2022-12-01T05:43:34.000Z,0.56
2022-12-01T05:44:34.000Z,0.57
2022-12-01T05:45:34.000Z,0.57
2022-12-01T05:46:34.000Z,0.59
2022-12-01T05:47:34.000Z,0.57
2022-12-01T05:48:34.000Z,0.57
2022-12-01T05:49:34.000Z,0.57
2022-12-01T05:50:34.000Z,0.53
2022-12-01T05:51:34.000Z,0.57
2022-12-01T05:52:34.000Z,0.59
2022-12-01T05:53:34.000Z,0.57
2022-12-01T05:54:34.000Z,0.60
2022-12-01T05:55:34.000Z,0.59
2022-12-01T05:56:34.000Z,0.59
2022-12-01T05:57:34.000Z,0.57
2022-12-01T05:58:34.000Z,0.59
2022-12-01T05:59:34.000Z,0.62
2022-12-01T06:00:34.000Z,0.56
2022-12-01T06:01:34.000Z,0.59
2022-12-01T06:02:34.000Z,0.59
2022-12-01T06:03:34.000Z,0.53
2022-12-01T06:04:34.000Z,0.53
2022-12-01T06:05:34.000Z,0.53
2022-12-01T06:06:34.000Z,0.53
2022-12-01T06:07:34.000Z,0.51
2022-12-01T06:08:34.000Z,0.48
2022-12-01T06:09:34.000Z,0.49
2022-12-01T06:10:34.000Z,0.51
2022-12-01T06:11:34.000Z,0.51
2022-12-01T06:12:34.000Z,0.52
2022-12-01T06:13:34.000Z,0.56
2022-12-01T06:14:34.000Z,0.51
2022-12-01T06:15:34.000Z,0.51
2022-12-01T06:16:34.000Z,0.56
2022-12-01T06:17:34.000Z,0.52
2022-12-01T06:18:34.000Z,0.52
2022-12-01T06:19:34.000Z,0.53
2022-12-01T06:20:34.000Z,0.59
2022-12-01T06:21:34.000Z,0.57
2022-12-01T06:22:34.000Z,0.60
2022-12-01T06:23:34.000Z,0.60
2022-12-01T06:24:34.000Z,0.56
2022-12-01T06:25:34.000Z,0.53
2022-12-01T06:26:34.000Z,0.56
2022-12-01T06:27:34.000Z,0.59
2022-12-01T06:28:34.000Z,0.60
2022-12-01T06:29:34.000Z,0.56
2022-12-01T06:30:34.000Z,0.57
2022-12-01T06:31:34.000Z,0.57
2022-12-01T06:32:34.000Z,0.57
2022-12-01T06:33:34.000Z,0.60
2022-12-01T06:34:34.000Z,0.57
2022-12-01T06:35:34.000Z,0.59
2022-12-01T06:36:34.000Z,0.59
2022-12-01T06:37:34.000Z,0.59
2022-12-01T06:38:34.000Z,0.57
2022-12-01T06:39:34.000Z,0.60
2022-12-01T06:40:34.000Z,0.59
2022-12-01T06:41:34.000Z,0.62
2022-12-01T06:42:34.000Z,0.60
2022-12-01T06:43:34.000Z,0.63
2022-12-01T06:44:34.000Z,0.60
2022-12-01T06:45:34.000Z,0.62
2022-12-01T06:46:34.000Z,0.63
2022-12-01T06:47:34.000Z,0.63
2022-12-01T06:48:34.000Z,0.63
2022-12-01T06:49:34.000Z,0.67
2022-12-01T06:50:34.000Z,0.67
2022-12-01T06:51:34.000Z,0.63
2022-12-01T06:52:34.000Z,0.67
2022-12-01T06:53:34.000Z,0.64
2022-12-01T06:54:34.000Z,0.68
2022-12-01T06:55:34.000Z,0.67
2022-12-01T06:56:33.000Z,0.64
2022-12-01T06:57:33.000Z,0.71
2022-12-01T06:58:33.000Z,0.64
2022-12-01T06:59:33.000Z,0.68
2022-12-01T07:00:33.000Z,0.67
2022-12-01T07:01:33.000Z,0.64
2022-12-01T07:02:33.000Z,0.64
2022-12-01T07:03:33.000Z,0.62
2022-12-01T07:04:33.000Z,0.63
2022-12-01T07:05:33.000Z,0.60
2022-12-01T07:06:33.000Z,0.59
2022-12-01T07:07:33.000Z,0.56
2022-12-01T07:08:33.000Z,0.56
2022-12-01T07:09:33.000Z,0.56
2022-12-01T07:10:33.000Z,0.57
2022-12-01T07:11:33.000Z,0.53
2022-12-01T07:12:33.000Z,0.52
2022-12-01T07:13:33.000Z,0.51
2022-12-01T07:14:33.000Z,0.49
2022-12-01T07:15:33.000Z,0.51
2022-12-01T07:16:33.000Z,0.51
2022-12-01T07:17:33.000Z,0.53
2022-12-01T07:18:33.000Z,0.53
2022-12-01T07:19:33.000Z,0.53
2022-12-01T07:20:33.000Z,0.56
2022-12-01T07:21:33.000Z,0.56
2022-12-01T07:22:33.000Z,0.53
2022-12-01T07:23:33.000Z,0.57
2022-12-01T07:24:33.000Z,0.57
2022-12-01T07:25:33.000Z,0.56
2022-12-01T07:26:33.000Z,0.56
2022-12-01T07:27:33.000Z,0.53
2022-12-01T07:28:33.000Z,0.53
2022-12-01T07:29:33.000Z,0.56
2022-12-01T07:30:33.000Z,0.52
2022-12-01T07:31:33.000Z,0.51
2022-12-01T07:32:33.000Z,0.49
2022-12-01T07:33:33.000Z,0.51
2022-12-01T07:34:33.000Z,0.48
2022-12-01T07:35:33.000Z,0.49
2022-12-01T07:36:33.000Z,0.51
2022-12-01T07:37:33.000Z,0.53
2022-12-01T07:38:33.000Z,0.52
2022-12-01T07:39:33.000Z,0.51
2022-12-01T07:40:33.000Z,0.52
2022-12-01T07:41:33.000Z,0.53
2022-12-01T07:42:33.000Z,0.52
2022-12-01T07:43:33.000Z,0.53
2022-12-01T07:44:33.000Z,0.53
2022-12-01T07:45:33.000Z,0.52
2022-12-01T07:46:33.000Z,0.52
2022-12-01T07:47:33.000Z,0.51
2022-12-01T07:48:33.000Z,0.52
2022-12-01T07:49:33.000Z,0.45
2022-12-01T07:50:33.000Z,0.48
2022-12-01T07:51:33.000Z,0.51
2022-12-01T07:52:33.000Z,0.45
2022-12-01T07:53:33.000Z,0.52
2022-12-01T07:54:33.000Z,0.49
2022-12-01T07:55:33.000Z,0.49
2022-12-01T07:56:33.000Z,0.49
2022-12-01T07:57:33.000Z,0.49
2022-12-01T07:58:33.000Z,0.52
2022-12-01T07:59:33.000Z,0.48
2022-12-01T08:00:33.000Z,0.51
2022-12-01T08:01:33.000Z,0.51
2022-12-01T08:02:33.000Z,0.52
2022-12-01T08:03:33.000Z,0.53
2022-12-01T08:04:33.000Z,0.51
2022-12-01T08:05:33.000Z,0.49
2022-12-01T08:06:33.000Z,0.52
2022-12-01T08:07:33.000Z,0.56
2022-12-01T08:08:33.000Z,0.53
2022-12-01T08:09:33.000Z,0.53
2022-12-01T08:10:33.000Z,0.59
2022-12-01T08:11:33.000Z,0.56
2022-12-01T08:12:33.000Z,0.57
2022-12-01T08:13:32.000Z,0.56
2022-12-01T08:14:32.000Z,0.53
2022-12-01T08:15:32.000Z,0.53
2022-12-01T08:16:32.000Z,0.53
2022-12-01T08:17:32.000Z,0.56
2022-12-01T08:18:32.000Z,0.59
2022-12-01T08:19:32.000Z,0.57
2022-12-01T08:20:32.000Z,0.60
2022-12-01T08:21:32.000Z,0.56
2022-12-01T08:22:32.000Z,0.56
2022-12-01T08:23:32.000Z,0.59
2022-12-01T08:24:32.000Z,0.57
2022-12-01T08:25:32.000Z,0.57
2022-12-01T08:26:32.000Z,0.59
2022-12-01T08:27:32.000Z,0.56
2022-12-01T08:28:32.000Z,0.57
2022-12-01T08:29:32.000Z,0.60
2022-12-01T08:30:32.000Z,0.63
2022-12-01T08:31:32.000Z,0.62
2022-12-01T08:32:32.000Z,0.64
2022-12-01T08:33:32.000Z,0.63
2022-12-01T08:34:32.000Z,0.59
2022-12-01T08:35:32.000Z,0.62
2022-12-01T08:36:32.000Z,0.63
2022-12-01T08:37:32.000Z,0.64
2022-12-01T08:38:32.000Z,0.64
2022-12-01T08:39:32.000Z,0.68
2022-12-01T08:40:32.000Z,0.68
2022-12-01T08:41:32.000Z,0.67
2022-12-01T08:42:32.000Z,0.70
2022-12-01T08:43:32.000Z,0.75
2022-12-01T08:44:32.000Z,0.74
2022-12-01T08:45:32.000Z,0.72
2022-12-01T08:46:32.000Z,0.74
2022-12-01T08:47:32.000Z,0.71
2022-12-01T08:48:32.000Z,0.74
2022-12-01T08:49:32.000Z,0.78
2022-12-01T08:50:32.000Z,0.77
2022-12-01T08:51:32.000Z,0.81
2022-12-01T08:52:32.000Z,0.84
2022-12-01T08:53:32.000Z,0.82
2022-12-01T08:54:32.000Z,0.82
2022-12-01T08:55:32.000Z,0.82
2022-12-01T08:56:32.000Z,0.84
2022-12-01T08:57:32.000Z,0.84
2022-12-01T08:58:32.000Z,0.82
2022-12-01T08:59:32.000Z,0.86
2022-12-01T09:00:32.000Z,0.80
2022-12-01T09:01:32.000Z,0.84
2022-12-01T09:02:32.000Z,0.80
2022-12-01T09:03:32.000Z,0.81
2022-12-01T09:04:32.000Z,0.78
2022-12-01T09:05:32.000Z,0.78
2022-12-01T09:06:32.000Z,0.74
2022-12-01T09:07:32.000Z,0.77
2022-12-01T09:08:32.000Z,0.75
2022-12-01T09:09:32.000Z,0.78
2022-12-01T09:10:32.000Z,0.78
2022-12-01T09:11:32.000Z,0.78
2022-12-01T09:12:32.000Z,0.78
2022-12-01T09:13:32.000Z,0.82
2022-12-01T09:14:32.000Z,0.81
2022-12-01T09:15:32.000Z,0.82
2022-12-01T09:16:32.000Z,0.86
2022-12-01T09:17:32.000Z,0.84
2022-12-01T09:18:32.000Z,0.88
2022-12-01T09:19:32.000Z,0.90
2022-12-01T09:20:32.000Z,0.90
2022-12-01T09:21:32.000Z,0.88
2022-12-01T09:22:32.000Z,0.86
2022-12-01T09:23:32.000Z,0.90
2022-12-01T09:24:32.000Z,0.90
2022-12-01T09:25:32.000Z,0.92
2022-12-01T09:26:32.000Z,0.92
2022-12-01T09:27:32.000Z,0.92
2022-12-01T09:28:32.000Z,0.96
2022-12-01T09:29:32.000Z,0.95
2022-12-01T09:30:31.000Z,0.99
2022-12-01T09:31:31.000Z,0.98
2022-12-01T09:32:31.000Z,1.02
2022-12-01T09:33:31.000Z,1.02
2022-12-01T09:34:31.000Z,0.99
2022-12-01T09:35:31.000Z,1.00
2022-12-01T09:36:31.000Z,1.04
2022-12-01T09:37:31.000Z,1.02
2022-12-01T09:38:31.000Z,1.02
2022-12-01T09:39:31.000Z,1.04
2022-12-01T09:40:31.000Z,1.06
2022-12-01T09:41:31.000Z,1.06
2022-12-01T09:42:31.000Z,1.04
2022-12-01T09:43:31.000Z,1.06
2022-12-01T09:44:31.000Z,1.04
2022-12-01T09:45:31.000Z,1.04
2022-12-01T09:46:31.000Z,1.07
2022-12-01T09:47:31.000Z,1.10
2022-12-01T09:48:31.000Z,1.08
2022-12-01T09:49:31.000Z,1.08
2022-12-01T09:50:31.000Z,1.13
2022-12-01T09:51:31.000Z,1.10
2022-12-01T09:52:31.000Z,1.10
2022-12-01T09:53:31.000Z,1.11
2022-12-01T09:54:31.000Z,1.07
2022-12-01T09:55:31.000Z,1.10
2022-12-01T09:56:31.000Z,1.13
2022-12-01T09:57:31.000Z,1.13
2022-12-01T09:58:31.000Z,1.14
2022-12-01T09:59:31.000Z,1.14
2022-12-01T10:00:31.000Z,1.18
2022-12-01T10:01:31.000Z,1.14
2022-12-01T10:02:31.000Z,1.16
2022-12-01T10:03:31.000Z,1.18
2022-12-01T10:04:31.000Z,1.20
2022-12-01T10:05:31.000Z,1.20
2022-12-01T10:06:31.000Z,1.18
2022-12-01T10:07:31.000Z,1.20
2022-12-01T10:08:31.000Z,1.16
2022-12-01T10:09:31.000Z,1.16
2022-12-01T10:10:31.000Z,1.13
2022-12-01T10:11:31.000Z,1.16
2022-12-01T10:12:31.000Z,1.10
2022-12-01T10:13:31.000Z,1.13
2022-12-01T10:14:31.000Z,1.11
2022-12-01T10:15:31.000Z,1.14
2022-12-01T10:16:31.000Z,1.10
2022-12-01T10:17:31.000Z,1.08
2022-12-01T10:18:31.000Z,1.07
2022-12-01T10:19:31.000Z,1.04
2022-12-01T10:20:31.000Z,0.99
2022-12-01T10:21:31.000Z,0.99
2022-12-01T10:22:31.000Z,0.96
2022-12-01T10:23:31.000Z,1.00
2022-12-01T10:24:31.000Z,0.98
2022-12-01T10:25:31.000Z,0.98
2022-12-01T10:26:31.000Z,0.99
2022-12-01T10:27:31.000Z,0.98
2022-12-01T10:28:31.000Z,0.96
2022-12-01T10:29:31.000Z,1.00
2022-12-01T10:30:31.000Z,1.06
2022-12-01T10:31:31.000Z,1.04
2022-12-01T10:32:31.000Z,1.04
2022-12-01T10:33:31.000Z,1.07
2022-12-01T10:34:31.000Z,1.10
2022-12-01T10:35:31.000Z,1.11
2022-12-01T10:36:31.000Z,1.08
2022-12-01T10:37:31.000Z,1.08
2022-12-01T10:38:31.000Z,1.14
2022-12-01T10:39:31.000Z,1.10
2022-12-01T10:40:31.000Z,1.14
2022-12-01T10:41:31.000Z,1.16
2022-12-01T10:42:31.000Z,1.20
2022-12-01T10:43:31.000Z,1.24
2022-12-01T10:44:31.000Z,1.21
2022-12-01T10:45:31.000Z,1.25
2022-12-01T10:46:31.000Z,1.25
2022-12-01T10:47:30.000Z,1.26
2022-12-01T10:48:30.000Z,1.28
2022-12-01T10:49:30.000Z,1.28
2022-12-01T10:50:30.000Z,1.29
2022-12-01T10:51:30.000Z,1.29
2022-12-01T10:52:30.000Z,1.31
2022-12-01T10:53:30.000Z,1.31
2022-12-01T10:54:30.000Z,1.29
2022-12-01T10:55:30.000Z,1.32
2022-12-01T10:56:30.000Z,1.25
2022-12-01T10:57:30.000Z,1.28
2022-12-01T10:58:30.000Z,1.26
2022-12-01T10:59:30.000Z,1.21
2022-12-01T11:00:30.000Z,1.26
2022-12-01T11:01:30.000Z,1.25
2022-12-01T11:02:30.000Z,1.28
2022-12-01T11:03:30.000Z,1.29
2022-12-01T11:04:30.000Z,1.29
2022-12-01T11:05:30.000Z,1.31
2022-12-01T11:06:30.000Z,1.34
2022-12-01T11:07:30.000Z,1.36
2022-12-01T11:08:30.000Z,1.36
2022-12-01T11:09:30.000Z,1.34
2022-12-01T11:10:30.000Z,1.42
2022-12-01T11:11:30.000Z,1.36
2022-12-01T11:12:30.000Z,1.36
2022-12-01T11:13:30.000Z,1.35
2022-12-01T11:14:30.000Z,1.36
2022-12-01T11:15:30.000Z,1.34
2022-12-01T11:16:30.000Z,1.36
2022-12-01T11:17:30.000Z,1.36
2022-12-01T11:18:30.000Z,1.32
2022-12-01T11:19:30.000Z,1.31
2022-12-01T11:20:30.000Z,1.34
2022-12-01T11:21:30.000Z,1.34
2022-12-01T11:22:30.000Z,1.31
2022-12-01T11:23:30.000Z,1.32
2022-12-01T11:24:30.000Z,1.29
2022-12-01T11:25:30.000Z,1.35
2022-12-01T11:26:30.000Z,1.32
2022-12-01T11:27:30.000Z,1.34
2022-12-01T11:28:30.000Z,1.32
2022-12-01T11:29:30.000Z,1.36
2022-12-01T11:30:30.000Z,1.29
2022-12-01T11:31:30.000Z,1.28
2022-12-01T11:32:30.000Z,1.28
2022-12-01T11:33:30.000Z,1.25
2022-12-01T11:34:30.000Z,1.24
2022-12-01T11:35:30.000Z,1.25
2022-12-01T11:36:30.000Z,1.24
2022-12-01T11:37:30.000Z,1.21
2022-12-01T11:38:30.000Z,1.25
2022-12-01T11:39:30.000Z,1.25
2022-12-01T11:39:30.000Z,1.25
2022-12-01T11:39:30.000Z,1.25
2022-12-01T11:40:30.000Z,1.26
2022-12-01T11:40:30.000Z,1.26
2022-12-01T11:40:30.000Z,1.26
2022-12-01T11:41:30.000Z,1.25
2022-12-01T11:41:30.000Z,1.25
2022-12-01T11:41:30.000Z,1.25
2022-12-01T11:42:30.000Z,1.26
2022-12-01T11:42:30.000Z,1.26
2022-12-01T11:42:30.000Z,1.26
2022-12-01T11:43:30.000Z,1.29
2022-12-01T11:43:30.000Z,1.29
2022-12-01T11:43:30.000Z,1.29
2022-12-01T11:44:30.000Z,1.29
2022-12-01T11:44:30.000Z,1.29
2022-12-01T11:45:30.000Z,1.28
2022-12-01T11:45:30.000Z,1.28
2022-12-01T11:46:30.000Z,1.26
2022-12-01T11:46:30.000Z,1.26
2022-12-01T11:47:30.000Z,1.29
2022-12-01T11:47:30.000Z,1.29
2022-12-01T11:48:30.000Z,1.28
2022-12-01T11:48:30.000Z,1.28
2022-12-01T11:49:30.000Z,1.29
2022-12-01T11:50:30.000Z,1.25
2022-12-01T11:51:30.000Z,1.25
2022-12-01T11:52:30.000Z,1.18
2022-12-01T11:53:30.000Z,1.20
2022-12-01T11:54:30.000Z,1.17
2022-12-01T11:55:30.000Z,1.17
2022-12-01T11:56:30.000Z,1.16
2022-12-01T11:57:30.000Z,1.18
2022-12-01T11:58:30.000Z,1.17
2022-12-01T11:59:30.000Z,1.14
2022-12-01T12:00:30.000Z,1.17
2022-12-01T12:01:30.000Z,1.20
2022-12-01T12:02:30.000Z,1.17
2022-12-01T12:03:29.000Z,1.20
2022-12-01T12:04:29.000Z,1.24
2022-12-01T12:04:29.000Z,1.24
2022-12-01T12:05:29.000Z,1.26
2022-12-01T12:05:29.000Z,1.26
2022-12-01T12:06:29.000Z,1.25
2022-12-01T12:06:29.000Z,1.25
2022-12-01T12:07:29.000Z,1.26
2022-12-01T12:07:29.000Z,1.26
2022-12-01T12:08:29.000Z,1.26
2022-12-01T12:08:29.000Z,1.26
2022-12-01T12:09:29.000Z,1.25
2022-12-01T12:10:29.000Z,1.24
2022-12-01T12:11:29.000Z,1.24
2022-12-01T12:12:29.000Z,1.26
2022-12-01T12:13:29.000Z,1.25
2022-12-01T12:14:29.000Z,1.28
2022-12-01T12:14:29.000Z,1.28
2022-12-01T12:15:29.000Z,1.29
2022-12-01T12:15:29.000Z,1.29
2022-12-01T12:16:29.000Z,1.26
2022-12-01T12:16:29.000Z,1.26
2022-12-01T12:17:29.000Z,1.25
2022-12-01T12:17:29.000Z,1.25
2022-12-01T12:18:29.000Z,1.28
2022-12-01T12:18:29.000Z,1.28
2022-12-01T12:19:29.000Z,1.31
2022-12-01T12:20:29.000Z,1.36
2022-12-01T12:21:29.000Z,1.32
2022-12-01T12:22:29.000Z,1.32
2022-12-01T12:23:29.000Z,1.31
2022-12-01T12:24:29.000Z,1.29
2022-12-01T12:25:29.000Z,1.28
2022-12-01T12:26:29.000Z,1.26
2022-12-01T12:27:29.000Z,1.32
2022-12-01T12:28:29.000Z,1.35
2022-12-01T12:29:29.000Z,1.29
2022-12-01T12:30:29.000Z,1.35
2022-12-01T12:31:29.000Z,1.34
2022-12-01T12:32:29.000Z,1.32
2022-12-01T12:33:29.000Z,1.35
2022-12-01T12:34:29.000Z,1.34
2022-12-01T12:35:29.000Z,1.38
2022-12-01T12:36:29.000Z,1.34
2022-12-01T12:37:29.000Z,1.29
2022-12-01T12:38:29.000Z,1.31
2022-12-01T12:39:29.000Z,1.29
2022-12-01T12:40:29.000Z,1.32
2022-12-01T12:41:29.000Z,1.31
2022-12-01T12:42:29.000Z,1.35
2022-12-01T12:43:29.000Z,1.34
2022-12-01T12:44:29.000Z,1.31
2022-12-01T12:45:29.000Z,1.31
2022-12-01T12:46:29.000Z,1.29
2022-12-01T12:47:29.000Z,1.29
2022-12-01T12:48:29.000Z,1.29
2022-12-01T12:49:29.000Z,1.28
2022-12-01T12:50:29.000Z,1.28
2022-12-01T12:51:29.000Z,1.26
2022-12-01T12:52:29.000Z,1.29
2022-12-01T12:53:29.000Z,1.29
2022-12-01T12:54:29.000Z,1.31
2022-12-01T12:55:29.000Z,1.31
2022-12-01T12:56:29.000Z,1.29
2022-12-01T12:57:29.000Z,1.29
2022-12-01T12:58:29.000Z,1.31
2022-12-01T12:59:29.000Z,1.34
2022-12-01T13:00:29.000Z,1.35
2022-12-01T13:01:29.000Z,1.35
2022-12-01T13:02:29.000Z,1.35
2022-12-01T13:03:29.000Z,1.35
2022-12-01T13:04:29.000Z,1.34
2022-12-01T13:05:29.000Z,1.34
2022-12-01T13:06:29.000Z,1.36
2022-12-01T13:07:29.000Z,1.38
2022-12-01T13:08:29.000Z,1.39
2022-12-01T13:09:29.000Z,1.39
2022-12-01T13:10:29.000Z,1.38
2022-12-01T13:11:29.000Z,1.38
2022-12-01T13:12:29.000Z,1.36
2022-12-01T13:13:29.000Z,1.39
2022-12-01T13:14:29.000Z,1.38
2022-12-01T13:15:29.000Z,1.34
2022-12-01T13:16:29.000Z,1.35
2022-12-01T13:17:29.000Z,1.36
2022-12-01T13:18:29.000Z,1.35
2022-12-01T13:19:29.000Z,1.34
2022-12-01T13:20:28.000Z,1.32
2022-12-01T13:21:28.000Z,1.34
2022-12-01T13:22:28.000Z,1.35
2022-12-01T13:23:28.000Z,1.38
2022-12-01T13:24:28.000Z,1.35
2022-12-01T13:24:28.000Z,1.35
2022-12-01T13:25:28.000Z,1.39
2022-12-01T13:25:28.000Z,1.39
2022-12-01T13:26:28.000Z,1.35
2022-12-01T13:26:28.000Z,1.35
2022-12-01T13:27:28.000Z,1.38
2022-12-01T13:27:28.000Z,1.38
2022-12-01T13:28:28.000Z,1.35
2022-12-01T13:28:28.000Z,1.35
2022-12-01T13:29:28.000Z,1.35
2022-12-01T13:30:28.000Z,1.38
2022-12-01T13:31:28.000Z,1.35
2022-12-01T13:32:28.000Z,1.34
2022-12-01T13:33:28.000Z,1.34
2022-12-01T13:34:28.000Z,1.38
2022-12-01T13:35:28.000Z,1.35
2022-12-01T13:36:28.000Z,1.31
2022-12-01T13:37:28.000Z,1.34
2022-12-01T13:38:28.000Z,1.34
2022-12-01T13:39:28.000Z,1.35
2022-12-01T13:40:28.000Z,1.35
2022-12-01T13:41:28.000Z,1.36
2022-12-01T13:42:28.000Z,1.36
2022-12-01T13:43:28.000Z,1.39
2022-12-01T13:44:28.000Z,1.36
2022-12-01T13:45:28.000Z,1.36
2022-12-01T13:46:28.000Z,1.36
2022-12-01T13:47:28.000Z,1.38
2022-12-01T13:48:28.000Z,1.36
2022-12-01T13:49:28.000Z,1.35
2022-12-01T13:50:28.000Z,1.35
2022-12-01T13:51:28.000Z,1.35
2022-12-01T13:52:28.000Z,1.35
2022-12-01T13:53:28.000Z,1.34
2022-12-01T13:54:28.000Z,1.36
2022-12-01T13:55:28.000Z,1.35
2022-12-01T13:56:28.000Z,1.35
2022-12-01T13:57:28.000Z,1.35
2022-12-01T13:58:28.000Z,1.39
2022-12-01T13:59:28.000Z,1.36
2022-12-01T14:00:28.000Z,1.36
2022-12-01T14:01:28.000Z,1.39
2022-12-01T14:02:28.000Z,1.39
2022-12-01T14:03:28.000Z,1.36
2022-12-01T14:04:28.000Z,1.35
2022-12-01T14:05:28.000Z,1.32
2022-12-01T14:06:28.000Z,1.34
2022-12-01T14:07:28.000Z,1.39
2022-12-01T14:08:28.000Z,1.36
2022-12-01T14:09:28.000Z,1.35
2022-12-01T14:10:28.000Z,1.35
2022-12-01T14:11:28.000Z,1.32
2022-12-01T14:12:28.000Z,1.35
2022-12-01T14:13:28.000Z,1.34
2022-12-01T14:14:28.000Z,1.32
2022-12-01T14:15:28.000Z,1.32
2022-12-01T14:16:28.000Z,1.32
2022-12-01T14:17:28.000Z,1.32
2022-12-01T14:18:28.000Z,1.32
2022-12-01T14:19:28.000Z,1.32
2022-12-01T14:20:28.000Z,1.35
2022-12-01T14:21:28.000Z,1.35
2022-12-01T14:22:28.000Z,1.32
2022-12-01T14:23:28.000Z,1.38
2022-12-01T14:24:28.000Z,1.35
2022-12-01T14:25:28.000Z,1.35
2022-12-01T14:26:28.000Z,1.36
2022-12-01T14:27:28.000Z,1.34
2022-12-01T14:28:28.000Z,1.35
2022-12-01T14:29:28.000Z,1.34
2022-12-01T14:30:28.000Z,1.29
2022-12-01T14:31:28.000Z,1.35